Terminal Aerodrome Forecast
Issued by NWS Pittsburgh, PA

Home | Current Version | Previous Version | Text Only | Print | Product List | Glossary On
Versions: 1 2 3 4 5 6 7 8 9 10 11 12 13 14 15 16 17 18 19 20 21 22 23 24 25 26 27 28 29
000
FTUS41 KPBZ 280535
TAFPIT
TAF
KPIT 280535Z 2806/2912 VRB04KT P6SM VCSH BKN060
     FM280800 00000KT 3SM -SHRA OVC035
     FM281200 11003KT 4SM -SHRA BR OVC015
     FM281600 32005KT 6SM -SHRA BR OVC008
     FM282000 33008KT P6SM OVC015=

USA.gov is the U.S. government's official web portal to all federal, state and local government web resources and services.